METAR Formatted Surface Weather Observation
Issued by NWS

Home | Current Version | Previous Version | Text Only | Print | Product List | Glossary On
Versions: 1 2 3 4 5 6 7 8 9 10 11 12 13
518
SAUS41 KBOX 191255
MTRMQE
METAR KMQE 191254Z AUTO 25013KT 07/01 A2967 RMK AO1 SLP061 T00670006



USA.gov is the U.S. government's official web portal to all federal, state and local government web resources and services.